sensor_id;sensor_type;location;lat;lon;timestamp;pressure;altitude;pressure_sealevel;temperature;humidity
13029;BME280;6581;42.662;23.402;2022-10-31T00:01:17;95799.53;;;14.38;60.87
13029;BME280;6581;42.662;23.402;2022-10-31T00:03:46;95791.13;;;14.36;61.04
13029;BME280;6581;42.662;23.402;2022-10-31T00:06:14;95796.41;;;14.33;61.09
13029;BME280;6581;42.662;23.402;2022-10-31T00:08:44;95794.13;;;14.35;60.86
13029;BME280;6581;42.662;23.402;2022-10-31T00:11:11;95801.44;;;14.41;60.94
13029;BME280;6581;42.662;23.402;2022-10-31T00:13:38;95804.88;;;14.42;61.06
13029;BME280;6581;42.662;23.402;2022-10-31T00:16:06;95798.47;;;14.50;60.83
13029;BME280;6581;42.662;23.402;2022-10-31T00:18:39;95802.72;;;14.58;60.46
13029;BME280;6581;42.662;23.402;2022-10-31T00:21:07;95798.25;;;14.76;59.85
13029;BME280;6581;42.662;23.402;2022-10-31T00:23:35;95798.34;;;14.87;59.51
13029;BME280;6581;42.662;23.402;2022-10-31T00:26:27;95801.03;;;14.90;59.58
13029;BME280;6581;42.662;23.402;2022-10-31T00:28:54;95796.09;;;14.96;59.36
13029;BME280;6581;42.662;23.402;2022-10-31T00:31:22;95807.13;;;14.94;59.58
13029;BME280;6581;42.662;23.402;2022-10-31T00:33:50;95804.13;;;14.99;59.30
13029;BME280;6581;42.662;23.402;2022-10-31T00:36:19;95799.56;;;15.03;59.20
13029;BME280;6581;42.662;23.402;2022-10-31T00:38:47;95796.88;;;14.93;59.56
13029;BME280;6581;42.662;23.402;2022-10-31T00:41:16;95802.47;;;14.81;59.87
13029;BME280;6581;42.662;23.402;2022-10-31T00:43:43;95799.22;;;14.50;61.03
13029;BME280;6581;42.662;23.402;2022-10-31T00:46:11;95803.97;;;14.27;61.65
13029;BME280;6581;42.662;23.402;2022-10-31T00:48:38;95796.44;;;13.96;62.77
13029;BME280;6581;42.662;23.402;2022-10-31T00:51:05;95800.47;;;13.79;64.02
13029;BME280;6581;42.662;23.402;2022-10-31T00:53:34;95802.25;;;13.68;64.07
13029;BME280;6581;42.662;23.402;2022-10-31T00:56:02;95807.78;;;13.52;65.12
13029;BME280;6581;42.662;23.402;2022-10-31T00:58:29;95804.91;;;13.35;65.73
13029;BME280;6581;42.662;23.402;2022-10-31T01:00:56;95803.03;;;13.09;66.52
13029;BME280;6581;42.662;23.402;2022-10-31T01:03:24;95812.72;;;12.94;67.33
13029;BME280;6581;42.662;23.402;2022-10-31T01:05:56;95808.00;;;12.84;67.68
13029;BME280;6581;42.662;23.402;2022-10-31T01:08:24;95806.84;;;12.81;67.95
13029;BME280;6581;42.662;23.402;2022-10-31T01:11:01;95809.75;;;12.73;68.72
13029;BME280;6581;42.662;23.402;2022-10-31T01:13:29;95811.19;;;12.67;69.02
13029;BME280;6581;42.662;23.402;2022-10-31T01:15:57;95810.38;;;12.63;69.23
13029;BME280;6581;42.662;23.402;2022-10-31T01:18:25;95812.09;;;12.29;70.71
13029;BME280;6581;42.662;23.402;2022-10-31T01:21:00;95816.44;;;12.14;71.74
13029;BME280;6581;42.662;23.402;2022-10-31T01:23:28;95821.84;;;11.98;72.10
13029;BME280;6581;42.662;23.402;2022-10-31T01:26:02;95822.56;;;11.95;72.79
13029;BME280;6581;42.662;23.402;2022-10-31T01:28:31;95826.56;;;11.86;73.15
13029;BME280;6581;42.662;23.402;2022-10-31T01:31:04;95829.56;;;11.84;73.40
13029;BME280;6581;42.662;23.402;2022-10-31T01:33:33;95827.22;;;11.83;73.62
13029;BME280;6581;42.662;23.402;2022-10-31T01:36:01;95822.78;;;11.87;73.36
13029;BME280;6581;42.662;23.402;2022-10-31T01:38:28;95818.34;;;11.94;73.27
13029;BME280;6581;42.662;23.402;2022-10-31T01:40:56;95822.59;;;11.99;73.03
13029;BME280;6581;42.662;23.402;2022-10-31T01:43:41;95823.78;;;12.02;73.20
13029;BME280;6581;42.662;23.402;2022-10-31T01:46:09;95832.81;;;11.97;73.48
13029;BME280;6581;42.662;23.402;2022-10-31T01:48:36;95825.28;;;11.99;73.66
13029;BME280;6581;42.662;23.402;2022-10-31T01:51:03;95824.31;;;12.11;73.25
13029;BME280;6581;42.662;23.402;2022-10-31T01:53:32;95828.56;;;12.15;73.58
13029;BME280;6581;42.662;23.402;2022-10-31T01:56:00;95822.19;;;12.20;73.43
13029;BME280;6581;42.662;23.402;2022-10-31T01:58:29;95823.78;;;12.24;73.11
13029;BME280;6581;42.662;23.402;2022-10-31T02:00:59;95824.63;;;12.28;73.30
13029;BME280;6581;42.662;23.402;2022-10-31T02:03:27;95826.94;;;12.30;73.53
13029;BME280;6581;42.662;23.402;2022-10-31T02:05:57;95822.09;;;12.35;73.39
13029;BME280;6581;42.662;23.402;2022-10-31T02:08:27;95824.63;;;12.28;74.33
13029;BME280;6581;42.662;23.402;2022-10-31T02:10:56;95822.19;;;12.42;74.00
13029;BME280;6581;42.662;23.402;2022-10-31T02:13:24;95818.88;;;12.49;73.68
13029;BME280;6581;42.662;23.402;2022-10-31T02:15:55;95825.78;;;12.54;73.75
13029;BME280;6581;42.662;23.402;2022-10-31T02:18:27;95822.13;;;12.62;73.41
13029;BME280;6581;42.662;23.402;2022-10-31T02:20:59;95832.06;;;12.65;73.36
13029;BME280;6581;42.662;23.402;2022-10-31T02:27:11;95834.72;;;12.65;72.80
13029;BME280;6581;42.662;23.402;2022-10-31T02:29:55;95836.94;;;12.63;72.93
13029;BME280;6581;42.662;23.402;2022-10-31T02:35:28;95835.41;;;12.62;72.84
13029;BME280;6581;42.662;23.402;2022-10-31T02:38:04;95842.91;;;12.56;73.08
13029;BME280;6581;42.662;23.402;2022-10-31T02:40:38;95849.19;;;12.44;73.06
13029;BME280;6581;42.662;23.402;2022-10-31T02:43:43;95846.63;;;12.52;72.81
13029;BME280;6581;42.662;23.402;2022-10-31T02:46:17;95847.06;;;12.54;73.36
13029;BME280;6581;42.662;23.402;2022-10-31T02:48:50;95851.31;;;12.58;73.14
13029;BME280;6581;42.662;23.402;2022-10-31T02:51:19;95842.59;;;12.61;73.25
13029;BME280;6581;42.662;23.402;2022-10-31T02:53:47;95844.41;;;12.54;73.49
13029;BME280;6581;42.662;23.402;2022-10-31T02:56:16;95851.03;;;12.40;73.83
13029;BME280;6581;42.662;23.402;2022-10-31T02:58:47;95853.31;;;12.42;74.44
13029;BME280;6581;42.662;23.402;2022-10-31T03:01:42;95854.91;;;12.24;75.25
13029;BME280;6581;42.662;23.402;2022-10-31T03:07:18;95853.66;;;12.18;75.21
13029;BME280;6581;42.662;23.402;2022-10-31T03:09:51;95854.00;;;12.16;75.24
13029;BME280;6581;42.662;23.402;2022-10-31T03:12:26;95853.25;;;12.16;75.35
13029;BME280;6581;42.662;23.402;2022-10-31T03:15:00;95847.59;;;12.17;75.02
13029;BME280;6581;42.662;23.402;2022-10-31T03:17:33;95853.19;;;12.12;75.56
13029;BME280;6581;42.662;23.402;2022-10-31T03:20:06;95855.84;;;12.12;75.38
13029;BME280;6581;42.662;23.402;2022-10-31T03:22:37;95852.97;;;12.21;75.27
13029;BME280;6581;42.662;23.402;2022-10-31T03:25:08;95853.41;;;12.04;75.37
13029;BME280;6581;42.662;23.402;2022-10-31T03:27:37;95861.03;;;12.05;75.53
13029;BME280;6581;42.662;23.402;2022-10-31T03:30:07;95864.75;;;12.01;75.80
13029;BME280;6581;42.662;23.402;2022-10-31T03:32:53;95867.03;;;12.02;76.08
13029;BME280;6581;42.662;23.402;2022-10-31T03:35:23;95861.72;;;12.02;75.98
13029;BME280;6581;42.662;23.402;2022-10-31T03:37:52;95865.34;;;12.13;75.22
13029;BME280;6581;42.662;23.402;2022-10-31T03:40:21;95867.72;;;12.18;75.89
13029;BME280;6581;42.662;23.402;2022-10-31T03:42:54;95862.81;;;12.20;75.07
13029;BME280;6581;42.662;23.402;2022-10-31T03:45:23;95868.56;;;12.22;75.41
13029;BME280;6581;42.662;23.402;2022-10-31T03:47:52;95876.53;;;12.22;74.90
13029;BME280;6581;42.662;23.402;2022-10-31T03:50:23;95874.19;;;12.21;75.31
13029;BME280;6581;42.662;23.402;2022-10-31T03:52:55;95872.81;;;12.27;75.48
13029;BME280;6581;42.662;23.402;2022-10-31T03:55:27;95869.78;;;12.28;75.09
13029;BME280;6581;42.662;23.402;2022-10-31T03:57:58;95874.34;;;12.28;75.63
13029;BME280;6581;42.662;23.402;2022-10-31T04:00:28;95873.50;;;12.24;75.66
13029;BME280;6581;42.662;23.402;2022-10-31T04:03:00;95885.78;;;12.32;75.67
13029;BME280;6581;42.662;23.402;2022-10-31T04:05:34;95884.19;;;12.27;75.85
13029;BME280;6581;42.662;23.402;2022-10-31T04:08:05;95887.72;;;12.12;77.07
13029;BME280;6581;42.662;23.402;2022-10-31T04:10:35;95898.34;;;12.12;76.86
13029;BME280;6581;42.662;23.402;2022-10-31T04:13:07;95897.56;;;12.12;77.08
13029;BME280;6581;42.662;23.402;2022-10-31T04:15:48;95888.44;;;12.09;77.15
13029;BME280;6581;42.662;23.402;2022-10-31T04:18:17;95893.44;;;12.14;76.95
13029;BME280;6581;42.662;23.402;2022-10-31T04:20:47;95889.75;;;12.19;77.10
13029;BME280;6581;42.662;23.402;2022-10-31T04:23:20;95886.03;;;12.23;77.43
13029;BME280;6581;42.662;23.402;2022-10-31T04:25:48;95895.41;;;12.17;77.97
13029;BME280;6581;42.662;23.402;2022-10-31T04:28:16;95892.78;;;12.21;77.76
13029;BME280;6581;42.662;23.402;2022-10-31T04:30:44;95891.69;;;12.22;78.01
13029;BME280;6581;42.662;23.402;2022-10-31T04:33:11;95899.16;;;12.16;77.93
13029;BME280;6581;42.662;23.402;2022-10-31T04:35:38;95895.41;;;12.17;78.17
13029;BME280;6581;42.662;23.402;2022-10-31T04:38:07;95895.34;;;12.14;78.20
13029;BME280;6581;42.662;23.402;2022-10-31T04:40:34;95892.19;;;12.08;78.68
13029;BME280;6581;42.662;23.402;2022-10-31T04:43:24;95896.72;;;12.08;78.79
13029;BME280;6581;42.662;23.402;2022-10-31T04:45:52;95905.69;;;11.80;79.77
13029;BME280;6581;42.662;23.402;2022-10-31T04:48:19;95898.63;;;11.88;79.66
13029;BME280;6581;42.662;23.402;2022-10-31T04:50:46;95907.78;;;11.90;80.25
13029;BME280;6581;42.662;23.402;2022-10-31T04:53:15;95914.34;;;11.96;80.03
13029;BME280;6581;42.662;23.402;2022-10-31T04:56:06;95916.38;;;12.03;79.22
13029;BME280;6581;42.662;23.402;2022-10-31T04:58:40;95913.94;;;12.14;78.12
13029;BME280;6581;42.662;23.402;2022-10-31T05:01:09;95914.28;;;12.12;77.85
13029;BME280;6581;42.662;23.402;2022-10-31T05:03:36;95906.03;;;12.17;78.20
13029;BME280;6581;42.662;23.402;2022-10-31T05:06:05;95911.44;;;12.24;78.87
13029;BME280;6581;42.662;23.402;2022-10-31T05:08:33;95922.22;;;12.31;78.62
13029;BME280;6581;42.662;23.402;2022-10-31T05:11:04;95909.72;;;12.32;78.82
13029;BME280;6581;42.662;23.402;2022-10-31T05:13:32;95923.34;;;12.30;79.33
13029;BME280;6581;42.662;23.402;2022-10-31T05:16:06;95935.91;;;12.33;79.30
13029;BME280;6581;42.662;23.402;2022-10-31T05:18:45;95931.06;;;12.39;78.95
13029;BME280;6581;42.662;23.402;2022-10-31T05:21:31;95942.19;;;12.44;79.20
13029;BME280;6581;42.662;23.402;2022-10-31T05:24:03;95944.13;;;12.48;78.70
13029;BME280;6581;42.662;23.402;2022-10-31T05:26:32;95941.13;;;12.49;79.03
13029;BME280;6581;42.662;23.402;2022-10-31T05:28:59;95937.19;;;12.62;78.30
13029;BME280;6581;42.662;23.402;2022-10-31T05:31:27;95944.81;;;12.64;78.55
13029;BME280;6581;42.662;23.402;2022-10-31T05:33:54;95943.97;;;12.60;78.71
13029;BME280;6581;42.662;23.402;2022-10-31T05:37:00;95943.44;;;12.51;79.06
13029;BME280;6581;42.662;23.402;2022-10-31T05:39:28;95952.16;;;12.51;80.21
13029;BME280;6581;42.662;23.402;2022-10-31T05:42:00;95947.22;;;12.50;80.35
13029;BME280;6581;42.662;23.402;2022-10-31T05:44:27;95954.69;;;12.44;80.76
13029;BME280;6581;42.662;23.402;2022-10-31T05:47:05;95947.25;;;12.30;79.90
13029;BME280;6581;42.662;23.402;2022-10-31T05:50:05;95948.78;;;12.31;79.97
13029;BME280;6581;42.662;23.402;2022-10-31T05:52:46;95958.97;;;12.29;79.79
13029;BME280;6581;42.662;23.402;2022-10-31T05:55:28;95960.81;;;12.25;79.87
13029;BME280;6581;42.662;23.402;2022-10-31T05:58:03;95958.16;;;12.25;80.29
13029;BME280;6581;42.662;23.402;2022-10-31T06:00:33;95950.53;;;12.24;80.37
13029;BME280;6581;42.662;23.402;2022-10-31T06:03:08;95961.78;;;12.17;80.71
13029;BME280;6581;42.662;23.402;2022-10-31T06:05:58;95966.13;;;12.25;80.31
13029;BME280;6581;42.662;23.402;2022-10-31T06:08:31;95965.78;;;12.27;79.88
13029;BME280;6581;42.662;23.402;2022-10-31T06:11:04;95972.25;;;12.29;80.16
13029;BME280;6581;42.662;23.402;2022-10-31T06:13:54;95980.09;;;12.41;79.91
13029;BME280;6581;42.662;23.402;2022-10-31T06:16:25;95982.88;;;12.49;79.72
13029;BME280;6581;42.662;23.402;2022-10-31T06:18:55;95979.31;;;12.60;79.36
13029;BME280;6581;42.662;23.402;2022-10-31T06:21:23;95985.44;;;12.64;79.49
13029;BME280;6581;42.662;23.402;2022-10-31T06:23:51;95997.31;;;12.70;79.39
13029;BME280;6581;42.662;23.402;2022-10-31T06:26:45;95997.06;;;12.79;78.99
13029;BME280;6581;42.662;23.402;2022-10-31T06:29:12;96001.75;;;12.85;78.26
13029;BME280;6581;42.662;23.402;2022-10-31T06:32:04;96008.88;;;13.01;77.67
13029;BME280;6581;42.662;23.402;2022-10-31T06:34:37;96009.69;;;13.05;77.24
13029;BME280;6581;42.662;23.402;2022-10-31T06:37:05;96006.88;;;13.17;76.68
13029;BME280;6581;42.662;23.402;2022-10-31T06:39:33;96005.78;;;13.21;76.90
13029;BME280;6581;42.662;23.402;2022-10-31T06:42:03;96004.44;;;13.31;76.45
13029;BME280;6581;42.662;23.402;2022-10-31T06:44:31;96006.84;;;13.40;76.14
13029;BME280;6581;42.662;23.402;2022-10-31T06:46:58;96006.13;;;13.43;75.90
13029;BME280;6581;42.662;23.402;2022-10-31T06:49:52;96013.06;;;13.47;75.37
13029;BME280;6581;42.662;23.402;2022-10-31T06:52:22;96012.69;;;13.49;75.31
13029;BME280;6581;42.662;23.402;2022-10-31T06:54:50;96007.00;;;13.50;75.37
13029;BME280;6581;42.662;23.402;2022-10-31T06:57:19;96011.50;;;13.46;74.76
13029;BME280;6581;42.662;23.402;2022-10-31T06:59:47;96013.09;;;13.51;75.16
13029;BME280;6581;42.662;23.402;2022-10-31T07:02:29;96007.53;;;13.59;75.48
13029;BME280;6581;42.662;23.402;2022-10-31T07:05:21;96007.16;;;13.61;75.42
13029;BME280;6581;42.662;23.402;2022-10-31T07:07:52;96014.94;;;13.73;74.91
13029;BME280;6581;42.662;23.402;2022-10-31T07:10:20;96007.34;;;13.75;75.44
13029;BME280;6581;42.662;23.402;2022-10-31T07:12:58;96008.56;;;13.81;75.37
13029;BME280;6581;42.662;23.402;2022-10-31T07:15:52;96006.63;;;13.78;75.14
13029;BME280;6581;42.662;23.402;2022-10-31T07:18:20;96001.09;;;13.90;74.97
13029;BME280;6581;42.662;23.402;2022-10-31T07:20:48;96004.97;;;13.96;74.27
13029;BME280;6581;42.662;23.402;2022-10-31T07:23:16;95994.72;;;13.98;74.49
13029;BME280;6581;42.662;23.402;2022-10-31T07:25:48;95993.28;;;14.04;74.19
13029;BME280;6581;42.662;23.402;2022-10-31T07:28:22;95989.19;;;14.10;73.82
13029;BME280;6581;42.662;23.402;2022-10-31T07:30:51;95988.09;;;14.15;73.51
13029;BME280;6581;42.662;23.402;2022-10-31T07:33:20;95990.00;;;14.14;73.64
13029;BME280;6581;42.662;23.402;2022-10-31T07:36:27;95985.53;;;14.26;73.75
13029;BME280;6581;42.662;23.402;2022-10-31T07:38:59;95996.25;;;14.29;73.58
13029;BME280;6581;42.662;23.402;2022-10-31T07:41:29;95989.13;;;14.37;73.49
13029;BME280;6581;42.662;23.402;2022-10-31T07:43:58;95989.16;;;14.40;73.10
13029;BME280;6581;42.662;23.402;2022-10-31T07:46:43;95986.13;;;14.42;73.05
13029;BME280;6581;42.662;23.402;2022-10-31T07:49:36;95987.38;;;14.51;72.83
13029;BME280;6581;42.662;23.402;2022-10-31T07:52:22;95984.72;;;14.51;72.60
13029;BME280;6581;42.662;23.402;2022-10-31T07:54:53;95992.34;;;14.53;72.91
13029;BME280;6581;42.662;23.402;2022-10-31T07:57:22;95997.75;;;14.60;72.38
13029;BME280;6581;42.662;23.402;2022-10-31T07:59:51;95990.59;;;14.68;72.17
13029;BME280;6581;42.662;23.402;2022-10-31T08:02:18;95991.44;;;14.75;71.49
13029;BME280;6581;42.662;23.402;2022-10-31T08:04:48;95986.13;;;14.79;71.28
13029;BME280;6581;42.662;23.402;2022-10-31T08:07:36;95991.56;;;14.89;70.71
13029;BME280;6581;42.662;23.402;2022-10-31T08:10:06;95992.06;;;15.02;70.63
13029;BME280;6581;42.662;23.402;2022-10-31T08:12:36;95994.41;;;15.07;70.65
13029;BME280;6581;42.662;23.402;2022-10-31T08:15:09;95991.41;;;15.12;71.04
13029;BME280;6581;42.662;23.402;2022-10-31T08:17:37;95984.19;;;15.20;70.23
13029;BME280;6581;42.662;23.402;2022-10-31T08:20:05;95990.31;;;15.24;69.65
13029;BME280;6581;42.662;23.402;2022-10-31T08:22:38;95997.25;;;15.32;70.03
13029;BME280;6581;42.662;23.402;2022-10-31T08:25:06;96001.91;;;15.42;69.49
13029;BME280;6581;42.662;23.402;2022-10-31T08:27:34;95992.13;;;15.57;69.30
13029;BME280;6581;42.662;23.402;2022-10-31T08:30:02;95991.78;;;15.62;68.60
13029;BME280;6581;42.662;23.402;2022-10-31T08:32:32;95983.78;;;15.69;67.86
13029;BME280;6581;42.662;23.402;2022-10-31T08:35:24;95985.78;;;15.82;67.62
13029;BME280;6581;42.662;23.402;2022-10-31T08:38:10;95986.59;;;15.90;67.44
13029;BME280;6581;42.662;23.402;2022-10-31T08:40:38;95977.84;;;16.00;67.42
13029;BME280;6581;42.662;23.402;2022-10-31T08:43:08;95983.25;;;16.07;66.68
13029;BME280;6581;42.662;23.402;2022-10-31T08:45:37;95976.00;;;16.15;66.67
13029;BME280;6581;42.662;23.402;2022-10-31T08:48:12;95980.63;;;16.21;66.51
13029;BME280;6581;42.662;23.402;2022-10-31T08:50:40;95975.28;;;16.28;65.67
13029;BME280;6581;42.662;23.402;2022-10-31T08:53:11;95977.25;;;16.42;64.90
13029;BME280;6581;42.662;23.402;2022-10-31T08:55:41;95988.72;;;16.46;65.68
13029;BME280;6581;42.662;23.402;2022-10-31T08:58:23;95981.16;;;16.59;64.64
13029;BME280;6581;42.662;23.402;2022-10-31T09:00:55;95985.38;;;16.63;64.46
13029;BME280;6581;42.662;23.402;2022-10-31T09:03:49;95979.28;;;16.80;64.14
13029;BME280;6581;42.662;23.402;2022-10-31T09:06:16;95973.56;;;16.89;63.63
13029;BME280;6581;42.662;23.402;2022-10-31T09:08:43;95977.41;;;16.99;63.64
13029;BME280;6581;42.662;23.402;2022-10-31T09:11:10;95981.59;;;17.07;63.32
13029;BME280;6581;42.662;23.402;2022-10-31T09:14:12;95975.84;;;17.15;62.47
13029;BME280;6581;42.662;23.402;2022-10-31T09:16:39;95974.72;;;17.27;61.91
13029;BME280;6581;42.662;23.402;2022-10-31T09:19:15;95969.75;;;17.40;61.75
13029;BME280;6581;42.662;23.402;2022-10-31T09:21:45;95972.41;;;17.50;60.87
13029;BME280;6581;42.662;23.402;2022-10-31T09:24:12;95966.28;;;17.60;60.67
13029;BME280;6581;42.662;23.402;2022-10-31T09:26:41;95973.53;;;17.70;60.32
13029;BME280;6581;42.662;23.402;2022-10-31T09:29:26;95958.22;;;17.78;59.94
13029;BME280;6581;42.662;23.402;2022-10-31T09:31:57;95968.53;;;17.83;59.70
13029;BME280;6581;42.662;23.402;2022-10-31T09:34:30;95963.91;;;17.98;59.22
13029;BME280;6581;42.662;23.402;2022-10-31T09:37:03;95965.38;;;18.06;58.44
13029;BME280;6581;42.662;23.402;2022-10-31T09:39:33;95970.69;;;18.20;58.54
13029;BME280;6581;42.662;23.402;2022-10-31T09:45:18;95970.22;;;18.43;57.46
13029;BME280;6581;42.662;23.402;2022-10-31T09:48:01;95959.47;;;18.53;57.48
13029;BME280;6581;42.662;23.402;2022-10-31T09:50:40;95950.94;;;18.69;57.72
13029;BME280;6581;42.662;23.402;2022-10-31T09:53:38;95952.38;;;18.81;56.86
13029;BME280;6581;42.662;23.402;2022-10-31T09:56:12;95958.44;;;18.95;56.50
13029;BME280;6581;42.662;23.402;2022-10-31T09:58:43;95956.88;;;19.01;56.06
13029;BME280;6581;42.662;23.402;2022-10-31T10:01:34;95946.78;;;19.13;55.87
13029;BME280;6581;42.662;23.402;2022-10-31T10:04:08;95940.19;;;19.24;54.75
13029;BME280;6581;42.662;23.402;2022-10-31T10:07:14;95942.09;;;19.24;54.37
13029;BME280;6581;42.662;23.402;2022-10-31T10:09:44;95934.34;;;19.33;54.39
13029;BME280;6581;42.662;23.402;2022-10-31T10:12:46;95928.19;;;19.32;53.68
13029;BME280;6581;42.662;23.402;2022-10-31T10:15:33;95922.69;;;19.50;54.27
13029;BME280;6581;42.662;23.402;2022-10-31T10:18:08;95928.34;;;19.59;53.64
13029;BME280;6581;42.662;23.402;2022-10-31T10:20:40;95925.56;;;19.70;52.69
13029;BME280;6581;42.662;23.402;2022-10-31T10:23:34;95918.56;;;19.76;52.36
13029;BME280;6581;42.662;23.402;2022-10-31T10:26:10;95919.56;;;19.89;51.49
13029;BME280;6581;42.662;23.402;2022-10-31T10:28:41;95915.22;;;19.99;51.10
13029;BME280;6581;42.662;23.402;2022-10-31T10:31:15;95911.25;;;20.10;50.78
13029;BME280;6581;42.662;23.402;2022-10-31T10:33:47;95902.31;;;20.20;50.14
13029;BME280;6581;42.662;23.402;2022-10-31T10:36:22;95900.59;;;20.33;49.57
13029;BME280;6581;42.662;23.402;2022-10-31T10:38:59;95894.78;;;20.39;49.63
13029;BME280;6581;42.662;23.402;2022-10-31T10:41:31;95894.28;;;20.47;49.58
13029;BME280;6581;42.662;23.402;2022-10-31T10:43:58;95894.41;;;20.63;48.63
13029;BME280;6581;42.662;23.402;2022-10-31T10:46:30;95891.63;;;20.70;47.84
13029;BME280;6581;42.662;23.402;2022-10-31T10:49:21;95885.31;;;20.81;48.31
13029;BME280;6581;42.662;23.402;2022-10-31T10:51:57;95890.41;;;20.98;47.30
13029;BME280;6581;42.662;23.402;2022-10-31T10:54:53;95891.41;;;21.08;46.20
13029;BME280;6581;42.662;23.402;2022-10-31T10:57:36;95889.03;;;21.13;46.57
13029;BME280;6581;42.662;23.402;2022-10-31T11:00:16;95879.13;;;21.30;45.70
13029;BME280;6581;42.662;23.402;2022-10-31T11:02:43;95882.81;;;21.40;45.37
13029;BME280;6581;42.662;23.402;2022-10-31T11:05:18;95880.72;;;21.47;44.77
13029;BME280;6581;42.662;23.402;2022-10-31T11:07:47;95875.69;;;21.49;44.81
13029;BME280;6581;42.662;23.402;2022-10-31T11:10:42;95869.88;;;21.51;44.52
13029;BME280;6581;42.662;23.402;2022-10-31T11:13:22;95873.63;;;21.57;43.83
13029;BME280;6581;42.662;23.402;2022-10-31T11:15:54;95871.91;;;21.66;43.77
13029;BME280;6581;42.662;23.402;2022-10-31T11:18:25;95864.16;;;21.68;44.04
13029;BME280;6581;42.662;23.402;2022-10-31T11:20:54;95861.59;;;21.81;43.42
13029;BME280;6581;42.662;23.402;2022-10-31T11:23:23;95857.38;;;21.80;43.24
13029;BME280;6581;42.662;23.402;2022-10-31T11:25:55;95864.16;;;21.88;43.46
13029;BME280;6581;42.662;23.402;2022-10-31T11:28:57;95859.75;;;21.98;42.49
13029;BME280;6581;42.662;23.402;2022-10-31T11:31:25;95857.44;;;21.96;42.53
13029;BME280;6581;42.662;23.402;2022-10-31T11:33:57;95852.94;;;22.09;42.71
13029;BME280;6581;42.662;23.402;2022-10-31T11:36:27;95845.88;;;22.16;41.96
13029;BME280;6581;42.662;23.402;2022-10-31T11:38:56;95843.53;;;22.18;41.92
13029;BME280;6581;42.662;23.402;2022-10-31T11:41:28;95838.19;;;22.14;41.70
13029;BME280;6581;42.662;23.402;2022-10-31T11:44:03;95834.94;;;22.23;41.39
13029;BME280;6581;42.662;23.402;2022-10-31T11:46:35;95826.94;;;22.35;41.30
13029;BME280;6581;42.662;23.402;2022-10-31T11:49:03;95826.00;;;22.42;41.21
13029;BME280;6581;42.662;23.402;2022-10-31T11:51:33;95825.00;;;22.52;41.01
13029;BME280;6581;42.662;23.402;2022-10-31T11:54:03;95823.56;;;22.47;40.18
13029;BME280;6581;42.662;23.402;2022-10-31T11:56:41;95824.41;;;22.61;40.72
13029;BME280;6581;42.662;23.402;2022-10-31T11:59:32;95817.81;;;22.62;39.98
13029;BME280;6581;42.662;23.402;2022-10-31T12:02:00;95825.28;;;22.74;40.14
13029;BME280;6581;42.662;23.402;2022-10-31T12:04:40;95815.06;;;22.81;39.83
13029;BME280;6581;42.662;23.402;2022-10-31T12:07:12;95815.13;;;22.94;39.56
13029;BME280;6581;42.662;23.402;2022-10-31T12:09:41;95816.72;;;23.08;39.98
13029;BME280;6581;42.662;23.402;2022-10-31T12:12:38;95819.56;;;23.17;38.79
13029;BME280;6581;42.662;23.402;2022-10-31T12:15:21;95817.78;;;23.26;38.73
13029;BME280;6581;42.662;23.402;2022-10-31T12:18:00;95810.28;;;23.18;38.87
13029;BME280;6581;42.662;23.402;2022-10-31T12:20:52;95814.16;;;23.17;38.34
13029;BME280;6581;42.662;23.402;2022-10-31T12:23:27;95816.25;;;23.25;38.40
13029;BME280;6581;42.662;23.402;2022-10-31T12:26:10;95812.63;;;23.16;38.57
13029;BME280;6581;42.662;23.402;2022-10-31T12:28:54;95813.91;;;23.11;39.65
13029;BME280;6581;42.662;23.402;2022-10-31T12:31:34;95813.75;;;23.18;38.61
13029;BME280;6581;42.662;23.402;2022-10-31T12:34:24;95811.50;;;23.29;38.76
13029;BME280;6581;42.662;23.402;2022-10-31T12:37:02;95807.66;;;23.43;39.12
13029;BME280;6581;42.662;23.402;2022-10-31T12:39:40;95812.63;;;23.32;38.43
13029;BME280;6581;42.662;23.402;2022-10-31T12:42:19;95813.38;;;23.32;37.88
13029;BME280;6581;42.662;23.402;2022-10-31T12:45:28;95803.88;;;23.40;37.92
13029;BME280;6581;42.662;23.402;2022-10-31T12:50:54;95809.44;;;23.50;37.78
13029;BME280;6581;42.662;23.402;2022-10-31T12:53:39;95816.03;;;23.49;37.71
13029;BME280;6581;42.662;23.402;2022-10-31T12:56:21;95808.09;;;23.41;38.02
13029;BME280;6581;42.662;23.402;2022-10-31T12:58:54;95808.34;;;23.47;38.08
13029;BME280;6581;42.662;23.402;2022-10-31T13:01:27;95805.72;;;23.43;37.87
13029;BME280;6581;42.662;23.402;2022-10-31T13:03:59;95814.09;;;23.49;37.82
13029;BME280;6581;42.662;23.402;2022-10-31T13:06:33;95806.50;;;23.44;37.67
13029;BME280;6581;42.662;23.402;2022-10-31T13:09:05;95810.47;;;23.39;37.75
13029;BME280;6581;42.662;23.402;2022-10-31T13:11:37;95809.56;;;23.46;37.95
13029;BME280;6581;42.662;23.402;2022-10-31T13:14:07;95813.34;;;23.49;37.77
13029;BME280;6581;42.662;23.402;2022-10-31T13:16:40;95815.00;;;23.59;37.55
13029;BME280;6581;42.662;23.402;2022-10-31T13:19:13;95803.31;;;23.74;37.47
13029;BME280;6581;42.662;23.402;2022-10-31T13:21:55;95809.19;;;23.73;37.40
13029;BME280;6581;42.662;23.402;2022-10-31T13:24:30;95809.41;;;23.78;37.44
13029;BME280;6581;42.662;23.402;2022-10-31T13:27:03;95810.16;;;23.79;37.50
13029;BME280;6581;42.662;23.402;2022-10-31T13:29:39;95805.44;;;23.83;37.51
13029;BME280;6581;42.662;23.402;2022-10-31T13:32:10;95814.28;;;23.83;37.13
13029;BME280;6581;42.662;23.402;2022-10-31T13:34:40;95808.78;;;23.87;37.10
13029;BME280;6581;42.662;23.402;2022-10-31T13:37:14;95815.47;;;23.82;37.05
13029;BME280;6581;42.662;23.402;2022-10-31T13:39:55;95810.84;;;23.83;36.94
13029;BME280;6581;42.662;23.402;2022-10-31T13:42:37;95810.91;;;23.79;37.26
13029;BME280;6581;42.662;23.402;2022-10-31T13:45:12;95806.25;;;23.80;36.80
13029;BME280;6581;42.662;23.402;2022-10-31T13:47:41;95812.66;;;23.73;37.29
13029;BME280;6581;42.662;23.402;2022-10-31T13:50:22;95812.19;;;23.62;37.43
13029;BME280;6581;42.662;23.402;2022-10-31T13:52:49;95815.41;;;23.57;37.64